createdAt,value
2023-01-03T00:00:16.477Z,92.35
2023-01-03T00:00:48.451Z,92.33
2023-01-03T00:01:20.130Z,92.18
2023-01-03T00:01:52.693Z,92.38
2023-01-03T00:02:24.108Z,92.03
2023-01-03T00:02:55.657Z,92.20
2023-01-03T00:03:27.428Z,92.21
2023-01-03T00:03:59.911Z,92.40
2023-01-03T00:04:31.322Z,91.88
2023-01-03T00:05:04.090Z,92.22
2023-01-03T00:05:35.891Z,91.97
2023-01-03T00:06:16.654Z,92.14
2023-01-03T00:06:50.508Z,92.34
2023-01-03T00:07:34.016Z,92.32
2023-01-03T00:08:05.701Z,91.85
2023-01-03T00:08:37.047Z,91.74
2023-01-03T00:09:10.560Z,92.13
2023-01-03T00:09:41.918Z,91.94
2023-01-03T00:10:13.242Z,92.32
2023-01-03T00:10:44.586Z,91.61
2023-01-03T00:11:19.256Z,91.77
2023-01-03T00:12:11.504Z,92.12
2023-01-03T00:12:43.070Z,92.02
2023-01-03T00:13:14.397Z,91.80
2023-01-03T00:13:45.917Z,91.59
2023-01-03T00:14:43.966Z,92.07
2023-01-03T00:15:15.762Z,91.73
2023-01-03T00:15:47.310Z,91.53
2023-01-03T00:16:19.942Z,91.49
2023-01-03T00:16:53.606Z,91.69
2023-01-03T00:17:25.498Z,91.77
2023-01-03T00:17:56.949Z,91.55
2023-01-03T00:18:28.280Z,91.81
2023-01-03T00:18:59.649Z,91.77
2023-01-03T00:19:36.553Z,91.48
2023-01-03T00:20:09.891Z,91.46
2023-01-03T00:20:41.355Z,91.70
2023-01-03T00:21:13.549Z,91.56
2023-01-03T00:21:45.688Z,91.76
2023-01-03T00:22:17.705Z,91.48
2023-01-03T00:22:49.175Z,91.79
2023-01-03T00:23:20.622Z,91.26
2023-01-03T00:23:51.998Z,91.77
2023-01-03T00:24:23.556Z,91.60
2023-01-03T00:24:54.983Z,91.34
2023-01-03T00:25:27.129Z,91.40
2023-01-03T00:25:58.540Z,91.48
2023-01-03T00:26:29.958Z,91.28
2023-01-03T00:27:01.563Z,91.46
2023-01-03T00:27:32.869Z,91.73
2023-01-03T00:28:04.535Z,91.47
2023-01-03T00:28:36.077Z,91.78
2023-01-03T00:29:08.480Z,91.42
2023-01-03T00:29:40.170Z,91.62
2023-01-03T00:30:11.849Z,91.52
2023-01-03T00:30:43.263Z,91.54
2023-01-03T00:31:14.685Z,91.58
2023-01-03T00:31:46.191Z,91.10
2023-01-03T00:32:17.703Z,91.83
2023-01-03T00:32:49.113Z,91.92
2023-01-03T00:33:20.729Z,91.56
2023-01-03T00:33:52.278Z,91.83
2023-01-03T00:34:24.064Z,91.70
2023-01-03T00:34:58.885Z,91.71
2023-01-03T00:35:32.948Z,91.68
2023-01-03T00:36:06.333Z,92.06
2023-01-03T00:36:38.502Z,91.52
2023-01-03T00:37:10.114Z,91.93
2023-01-03T00:37:41.443Z,91.88
2023-01-03T00:38:12.849Z,92.29
2023-01-03T00:38:44.385Z,92.16
2023-01-03T00:39:15.779Z,92.08
2023-01-03T00:39:47.201Z,91.85
2023-01-03T00:40:18.526Z,92.60
2023-01-03T00:40:49.858Z,92.32
2023-01-03T00:41:21.532Z,92.37
2023-01-03T00:41:53.625Z,92.28
2023-01-03T00:42:25.047Z,92.09
2023-01-03T00:43:22.489Z,92.33
2023-01-03T00:43:53.953Z,92.10
2023-01-03T00:44:25.497Z,92.03
2023-01-03T00:44:56.814Z,92.54
2023-01-03T00:45:30.982Z,92.66
2023-01-03T00:46:06.209Z,92.62
2023-01-03T00:46:37.771Z,92.41
2023-01-03T00:47:09.282Z,92.53
2023-01-03T00:47:40.666Z,92.55
2023-01-03T00:48:12.266Z,92.76
2023-01-03T00:48:43.887Z,92.37
2023-01-03T00:49:15.226Z,92.75
2023-01-03T00:49:46.695Z,92.39
2023-01-03T00:50:18.017Z,93.11
2023-01-03T00:50:49.662Z,93.08
2023-01-03T00:51:23.704Z,93.19
2023-01-03T00:51:55.165Z,92.89
2023-01-03T00:52:26.635Z,92.83
2023-01-03T00:52:58.021Z,92.76
2023-01-03T00:53:29.411Z,92.64
2023-01-03T00:54:02.581Z,92.74
2023-01-03T00:54:34.089Z,93.27
2023-01-03T00:55:06.008Z,93.25
2023-01-03T00:55:37.566Z,93.43
2023-01-03T00:56:12.184Z,93.08
2023-01-03T00:56:45.520Z,92.90
2023-01-03T00:57:16.957Z,93.08
2023-01-03T00:57:48.330Z,93.30
2023-01-03T00:58:19.715Z,93.60
2023-01-03T00:58:51.546Z,93.50
2023-01-03T00:59:23.147Z,93.66
2023-01-03T00:59:54.524Z,93.38
2023-01-03T01:00:25.861Z,93.45
2023-01-03T01:00:57.251Z,93.47
2023-01-03T01:01:43.949Z,93.26
2023-01-03T01:02:20.400Z,93.66
2023-01-03T01:02:55.168Z,93.80
2023-01-03T01:03:26.895Z,93.41
2023-01-03T01:04:04.102Z,93.67
2023-01-03T01:04:35.540Z,93.55
2023-01-03T01:05:07.217Z,93.58
2023-01-03T01:05:38.652Z,93.17
2023-01-03T01:06:17.060Z,93.83
2023-01-03T01:06:51.970Z,93.79
2023-01-03T01:07:23.300Z,93.66
2023-01-03T01:07:54.646Z,93.91
2023-01-03T01:08:26.023Z,93.65
2023-01-03T01:08:59.430Z,94.06
2023-01-03T01:09:34.055Z,94.23
2023-01-03T01:10:05.858Z,93.65
2023-01-03T01:11:01.597Z,93.80
2023-01-03T01:11:33.782Z,93.79
2023-01-03T01:12:07.166Z,93.76
2023-01-03T01:12:38.874Z,93.98
2023-01-03T01:13:10.233Z,93.95
2023-01-03T01:13:42.828Z,93.70
2023-01-03T01:14:21.186Z,93.99
2023-01-03T01:14:52.662Z,94.19
2023-01-03T01:15:24.071Z,93.99
2023-01-03T01:15:55.813Z,94.33
2023-01-03T01:16:29.965Z,93.69
2023-01-03T01:17:09.755Z,94.05
2023-01-03T01:17:41.748Z,94.13
2023-01-03T01:18:13.113Z,93.84
2023-01-03T01:18:46.631Z,94.45
2023-01-03T01:19:20.334Z,94.56
2023-01-03T01:19:51.827Z,94.38
2023-01-03T01:20:23.207Z,94.57
2023-01-03T01:20:54.645Z,94.74
2023-01-03T01:21:31.328Z,94.63
2023-01-03T01:22:02.855Z,94.37
2023-01-03T01:22:35.093Z,94.61
2023-01-03T01:23:06.430Z,93.94
2023-01-03T01:24:28.649Z,94.48
2023-01-03T01:25:00.187Z,94.53
2023-01-03T01:25:34.072Z,94.05
2023-01-03T01:26:07.846Z,94.02
2023-01-03T01:26:39.308Z,94.45
2023-01-03T01:27:11.033Z,94.66
2023-01-03T01:27:42.575Z,94.28
2023-01-03T01:28:13.994Z,94.67
2023-01-03T01:28:45.405Z,94.61
2023-01-03T01:29:17.982Z,94.51
2023-01-03T01:29:49.367Z,94.55
2023-01-03T01:30:21.230Z,94.64
2023-01-03T01:30:52.635Z,94.48
2023-01-03T01:31:26.170Z,94.17
2023-01-03T01:31:57.560Z,94.35
2023-01-03T01:32:28.942Z,94.53
2023-01-03T01:33:00.333Z,94.53
2023-01-03T01:33:34.239Z,93.88
2023-01-03T01:34:06.069Z,93.89
2023-01-03T01:34:37.796Z,94.53
2023-01-03T01:35:09.408Z,94.07
2023-01-03T01:35:40.818Z,94.08
2023-01-03T01:36:24.573Z,94.11
2023-01-03T01:37:14.455Z,94.11
2023-01-03T01:37:45.782Z,94.19
2023-01-03T01:38:17.168Z,94.16
2023-01-03T01:38:54.298Z,93.78
2023-01-03T01:39:28.116Z,93.76
2023-01-03T01:39:59.540Z,93.86
2023-01-03T01:40:31.345Z,93.57
2023-01-03T01:41:03.047Z,93.74
2023-01-03T01:41:54.537Z,93.65
2023-01-03T01:42:44.424Z,93.45
2023-01-03T01:43:42.238Z,93.97
2023-01-03T01:44:44.529Z,93.53
2023-01-03T01:45:16.010Z,93.66
2023-01-03T01:45:47.572Z,93.96
2023-01-03T01:46:29.090Z,94.04
2023-01-03T01:47:02.216Z,93.48
2023-01-03T01:47:41.464Z,93.41
2023-01-03T01:48:14.377Z,93.34
2023-01-03T01:48:47.350Z,93.49
2023-01-03T01:49:23.535Z,93.28
2023-01-03T01:50:02.467Z,93.21
2023-01-03T01:50:50.837Z,93.17
2023-01-03T01:51:26.150Z,93.39
2023-01-03T01:51:57.678Z,93.33
2023-01-03T01:52:32.357Z,93.42
2023-01-03T01:53:18.392Z,92.90
2023-01-03T01:53:54.130Z,93.14
2023-01-03T01:54:25.511Z,93.48
2023-01-03T01:54:58.878Z,93.22
2023-01-03T01:55:37.152Z,93.23
2023-01-03T01:56:37.977Z,93.40
2023-01-03T01:57:15.308Z,93.37
2023-01-03T01:57:46.942Z,93.09
2023-01-03T01:58:18.643Z,93.47
2023-01-03T01:58:52.653Z,93.32
2023-01-03T01:59:25.089Z,93.41
2023-01-03T01:59:56.542Z,93.02
2023-01-03T02:00:28.964Z,92.79
2023-01-03T02:01:00.770Z,92.75
2023-01-03T02:01:34.965Z,92.53
2023-01-03T02:02:06.872Z,92.96
2023-01-03T02:02:38.568Z,93.24
2023-01-03T02:03:11.262Z,92.81
2023-01-03T02:03:46.562Z,92.65
2023-01-03T02:04:23.056Z,92.92
2023-01-03T02:04:56.675Z,92.88
2023-01-03T02:05:29.133Z,92.97
2023-01-03T02:06:02.776Z,92.98
2023-01-03T02:06:34.449Z,92.85
2023-01-03T02:07:07.666Z,93.04
2023-01-03T02:07:39.693Z,93.04
2023-01-03T02:08:11.123Z,92.98
2023-01-03T02:08:42.763Z,92.81
2023-01-03T02:09:14.190Z,92.66
2023-01-03T02:09:48.879Z,93.17
2023-01-03T02:11:05.340Z,92.86
2023-01-03T02:12:15.819Z,92.83
2023-01-03T02:13:18.373Z,93.04
2023-01-03T02:14:13.017Z,93.32
2023-01-03T02:15:08.704Z,93.13
2023-01-03T02:15:45.360Z,92.98
2023-01-03T02:16:51.988Z,93.03
2023-01-03T02:17:36.366Z,92.98
2023-01-03T02:18:32.068Z,92.70
2023-01-03T02:19:25.778Z,92.83
2023-01-03T02:20:34.829Z,92.91
2023-01-03T02:21:24.953Z,92.86
2023-01-03T02:22:08.144Z,92.79
2023-01-03T02:22:47.556Z,92.39
2023-01-03T02:23:39.503Z,92.90
2023-01-03T02:24:21.861Z,92.71
2023-01-03T02:25:14.574Z,92.76
2023-01-03T02:26:20.024Z,92.69
2023-01-03T02:26:59.278Z,92.51
2023-01-03T02:27:59.849Z,92.76
2023-01-03T02:28:40.020Z,92.43
2023-01-03T02:29:29.890Z,92.74
2023-01-03T02:30:32.881Z,92.43
2023-01-03T02:31:25.458Z,92.88
2023-01-03T02:32:07.041Z,92.90
2023-01-03T02:33:06.231Z,93.05
2023-01-03T02:33:45.882Z,92.79
2023-01-03T02:34:21.441Z,92.79
2023-01-03T02:35:06.238Z,92.95
2023-01-03T02:35:44.221Z,92.94
2023-01-03T02:36:40.506Z,93.49
2023-01-03T02:37:21.470Z,93.11
2023-01-03T02:38:05.362Z,93.26
2023-01-03T02:38:50.510Z,93.39
2023-01-03T02:39:40.834Z,93.54
2023-01-03T02:41:02.922Z,93.42
2023-01-03T02:41:44.342Z,93.81
2023-01-03T02:42:43.668Z,94.06
2023-01-03T02:43:24.747Z,94.17
2023-01-03T02:44:04.029Z,94.46
2023-01-03T02:44:38.260Z,93.98
2023-01-03T02:45:28.116Z,94.17
2023-01-03T02:46:06.367Z,94.43
2023-01-03T02:46:45.712Z,94.26
2023-01-03T02:47:22.253Z,94.50
2023-01-03T02:48:03.493Z,94.06
2023-01-03T02:48:56.229Z,93.98
2023-01-03T02:49:34.959Z,94.40
2023-01-03T02:50:11.899Z,94.22
2023-01-03T02:50:48.671Z,94.57
2023-01-03T02:51:35.163Z,94.72
2023-01-03T02:52:11.364Z,94.79
2023-01-03T02:52:45.088Z,94.32
2023-01-03T02:53:25.076Z,94.36
2023-01-03T02:53:59.061Z,94.16
2023-01-03T02:54:42.098Z,95.18
2023-01-03T02:55:19.550Z,94.87
2023-01-03T02:55:53.147Z,94.53
2023-01-03T02:56:33.551Z,95.38
2023-01-03T02:57:10.500Z,94.77
2023-01-03T02:57:50.356Z,95.28
2023-01-03T02:58:28.084Z,94.63
2023-01-03T02:59:03.283Z,95.11
2023-01-03T02:59:42.286Z,95.18
2023-01-03T03:00:16.478Z,95.24
2023-01-03T03:00:52.621Z,94.91
2023-01-03T03:01:25.919Z,95.28
2023-01-03T03:01:59.534Z,95.01
2023-01-03T03:02:35.247Z,95.44
2023-01-03T03:03:13.777Z,95.38
2023-01-03T03:03:46.500Z,94.98
2023-01-03T03:04:19.869Z,95.30
2023-01-03T03:04:55.574Z,95.41
2023-01-03T03:05:34.114Z,95.07
2023-01-03T03:06:19.129Z,95.55
2023-01-03T03:07:19.404Z,95.25
2023-01-03T03:07:50.891Z,95.18
2023-01-03T03:08:22.545Z,95.28
2023-01-03T03:08:53.997Z,95.50
2023-01-03T03:09:25.325Z,95.22
2023-01-03T03:10:15.669Z,95.48
2023-01-03T03:11:05.773Z,95.33
2023-01-03T03:11:58.331Z,95.40
2023-01-03T03:12:50.733Z,95.26
2023-01-03T03:13:35.135Z,95.61
2023-01-03T03:14:22.996Z,95.58
2023-01-03T03:14:55.466Z,95.85
2023-01-03T03:15:36.231Z,95.61
2023-01-03T03:16:15.984Z,95.94
2023-01-03T03:16:51.250Z,95.75
2023-01-03T03:17:28.428Z,95.85
2023-01-03T03:18:04.915Z,95.39
2023-01-03T03:18:58.131Z,95.84
2023-01-03T03:19:50.428Z,95.81
2023-01-03T03:20:40.376Z,95.95
2023-01-03T03:21:34.117Z,95.95
2023-01-03T03:22:30.084Z,96.47
2023-01-03T03:23:30.554Z,95.85
2023-01-03T03:24:35.321Z,96.38
2023-01-03T03:25:15.899Z,96.31
2023-01-03T03:25:54.646Z,95.93
2023-01-03T03:26:33.165Z,96.18
2023-01-03T03:27:29.166Z,96.41
2023-01-03T03:28:25.603Z,96.17
2023-01-03T03:29:04.216Z,96.43
2023-01-03T03:29:35.891Z,96.57
2023-01-03T03:30:11.983Z,96.00
2023-01-03T03:30:46.112Z,96.19
2023-01-03T03:31:20.220Z,96.43
2023-01-03T03:31:52.975Z,96.12
2023-01-03T03:32:27.451Z,96.28
2023-01-03T03:33:05.581Z,96.52
2023-01-03T03:33:57.470Z,96.40
2023-01-03T03:34:35.451Z,96.03
2023-01-03T03:35:11.538Z,96.22
2023-01-03T03:36:07.613Z,96.14
2023-01-03T03:36:50.086Z,96.17
2023-01-03T03:37:25.035Z,96.24
2023-01-03T03:37:59.010Z,96.65
2023-01-03T03:38:36.829Z,96.33
2023-01-03T03:39:28.652Z,96.29
2023-01-03T03:40:18.732Z,96.33
2023-01-03T03:41:24.354Z,96.35
2023-01-03T03:42:20.224Z,96.46
2023-01-03T03:43:19.451Z,96.58
2023-01-03T03:44:39.700Z,96.35
2023-01-03T03:45:24.658Z,97.04
2023-01-03T03:47:32.273Z,96.75
2023-01-03T03:48:52.848Z,96.97
2023-01-03T03:49:39.907Z,96.79
2023-01-03T03:50:28.250Z,96.74
2023-01-03T03:51:10.173Z,96.91
2023-01-03T03:51:44.083Z,97.11
2023-01-03T03:52:19.191Z,96.74
2023-01-03T03:52:56.000Z,96.81
2023-01-03T03:53:31.608Z,97.10
2023-01-03T03:54:08.807Z,96.86
2023-01-03T03:54:45.401Z,97.18
2023-01-03T03:55:25.601Z,97.03
2023-01-03T03:56:01.654Z,96.83
2023-01-03T03:56:36.470Z,97.26
2023-01-03T03:57:22.833Z,96.73
2023-01-03T03:58:00.870Z,96.79
2023-01-03T03:58:40.256Z,96.94
2023-01-03T03:59:12.217Z,97.22
2023-01-03T03:59:48.481Z,97.02
2023-01-03T04:00:26.572Z,97.33
2023-01-03T04:00:58.715Z,97.26
2023-01-03T04:01:31.664Z,97.38
2023-01-03T04:02:06.754Z,97.51
2023-01-03T04:02:39.804Z,97.49
2023-01-03T04:03:13.092Z,97.25
2023-01-03T04:03:47.503Z,97.31
2023-01-03T04:04:24.650Z,97.86
2023-01-03T04:05:00.590Z,97.49
2023-01-03T04:05:36.350Z,97.59
2023-01-03T04:06:28.065Z,97.92
2023-01-03T04:06:59.833Z,97.56
2023-01-03T04:07:31.503Z,97.80
2023-01-03T04:08:03.434Z,97.54
2023-01-03T04:08:34.924Z,98.13
2023-01-03T04:09:06.583Z,97.75
2023-01-03T04:09:38.074Z,97.97
2023-01-03T04:10:10.991Z,97.82
2023-01-03T04:10:43.065Z,97.96
2023-01-03T04:11:14.556Z,97.87
2023-01-03T04:11:46.010Z,97.31
2023-01-03T04:12:17.505Z,97.57
2023-01-03T04:12:51.835Z,97.47
2023-01-03T04:13:23.216Z,97.59
2023-01-03T04:13:54.656Z,97.48
2023-01-03T04:14:26.108Z,97.86
2023-01-03T04:14:57.525Z,97.53
2023-01-03T04:15:29.008Z,97.24
2023-01-03T04:16:00.485Z,97.51
2023-01-03T04:16:31.910Z,97.71
2023-01-03T04:17:03.370Z,97.79
2023-01-03T04:17:34.759Z,97.29
2023-01-03T04:18:06.283Z,97.58
2023-01-03T04:18:37.716Z,97.93
2023-01-03T04:19:58.173Z,97.66
2023-01-03T04:20:30.076Z,97.47
2023-01-03T04:21:01.591Z,97.25
2023-01-03T04:21:33.110Z,97.70
2023-01-03T04:22:04.488Z,97.21
2023-01-03T04:22:35.889Z,97.75
2023-01-03T04:23:07.231Z,97.64
2023-01-03T04:23:38.626Z,97.35
2023-01-03T04:24:10.180Z,97.81
2023-01-03T04:24:41.610Z,98.02
2023-01-03T04:25:12.938Z,98.10
2023-01-03T04:25:44.609Z,97.90
2023-01-03T04:26:17.099Z,97.98
2023-01-03T04:26:49.137Z,97.54
2023-01-03T04:27:20.486Z,97.51
2023-01-03T04:27:51.817Z,97.99
2023-01-03T04:28:23.215Z,98.04
2023-01-03T04:28:54.668Z,97.75
2023-01-03T04:29:26.085Z,97.58
2023-01-03T04:29:57.993Z,98.01
2023-01-03T04:30:29.380Z,97.62
2023-01-03T04:31:00.761Z,97.84
2023-01-03T04:31:32.203Z,97.80
2023-01-03T04:32:03.866Z,98.51
2023-01-03T04:32:35.392Z,98.23
2023-01-03T04:33:06.763Z,98.05
2023-01-03T04:33:38.176Z,97.74
2023-01-03T04:34:09.616Z,97.95
2023-01-03T04:34:41.087Z,97.81
2023-01-03T04:35:12.547Z,97.62
2023-01-03T04:35:44.044Z,98.30
2023-01-03T04:36:15.437Z,98.06
2023-01-03T04:36:46.774Z,97.80
2023-01-03T04:37:18.178Z,97.50
2023-01-03T04:37:49.598Z,97.68
2023-01-03T04:39:09.975Z,97.99
2023-01-03T04:39:41.430Z,97.46
2023-01-03T04:40:12.791Z,98.11
2023-01-03T04:40:44.205Z,98.22
2023-01-03T04:41:16.590Z,98.13
2023-01-03T04:41:48.014Z,97.86
2023-01-03T04:42:38.206Z,97.49
2023-01-03T04:43:29.100Z,97.89
2023-01-03T04:44:04.460Z,97.87
2023-01-03T04:44:35.804Z,97.80
2023-01-03T04:45:08.165Z,98.00
2023-01-03T04:45:39.971Z,98.13
2023-01-03T04:46:11.429Z,97.77
2023-01-03T04:46:47.615Z,98.04
2023-01-03T04:47:22.225Z,97.95
2023-01-03T04:47:54.236Z,97.94
2023-01-03T04:48:25.591Z,97.47
2023-01-03T04:48:57.581Z,97.38
2023-01-03T04:49:28.972Z,97.88
2023-01-03T04:50:00.423Z,97.64
2023-01-03T04:50:32.564Z,97.88
2023-01-03T04:51:03.935Z,97.25
2023-01-03T04:51:35.837Z,97.20
2023-01-03T04:52:07.166Z,97.81
2023-01-03T04:52:38.485Z,97.64
2023-01-03T04:53:10.393Z,97.71
2023-01-03T04:53:41.748Z,97.24
2023-01-03T04:54:13.137Z,97.93
2023-01-03T04:54:44.585Z,97.74
2023-01-03T04:55:16.825Z,97.53
2023-01-03T04:55:50.092Z,97.44
2023-01-03T04:56:32.336Z,97.68
2023-01-03T04:57:03.749Z,97.48
2023-01-03T04:57:36.343Z,97.67
2023-01-03T04:58:07.671Z,98.05
2023-01-03T04:58:39.093Z,97.68
2023-01-03T04:59:10.421Z,97.88
2023-01-03T04:59:41.782Z,97.40
2023-01-03T05:00:13.852Z,97.64
2023-01-03T05:00:45.549Z,97.87
2023-01-03T05:01:17.853Z,98.07
2023-01-03T05:01:52.277Z,97.88
2023-01-03T05:02:24.034Z,98.06
2023-01-03T05:02:55.395Z,97.89
2023-01-03T05:03:28.137Z,97.85
2023-01-03T05:04:01.408Z,97.85
2023-01-03T05:04:32.898Z,97.79
2023-01-03T05:05:04.831Z,97.76
2023-01-03T05:05:37.817Z,97.71
2023-01-03T05:06:10.605Z,98.05
2023-01-03T05:06:41.995Z,97.75
2023-01-03T05:07:13.521Z,97.42
2023-01-03T05:07:45.046Z,97.49
2023-01-03T05:08:16.397Z,97.63
2023-01-03T05:08:47.840Z,97.23
2023-01-03T05:09:19.217Z,97.48
2023-01-03T05:09:50.557Z,97.39
2023-01-03T05:10:21.889Z,97.65
2023-01-03T05:10:53.715Z,97.03
2023-01-03T05:11:25.169Z,97.40
2023-01-03T05:11:56.989Z,97.19
2023-01-03T05:12:28.366Z,97.53
2023-01-03T05:13:00.671Z,97.68
2023-01-03T05:13:33.306Z,97.35
2023-01-03T05:14:07.986Z,97.50
2023-01-03T05:14:43.957Z,97.29
2023-01-03T05:15:15.457Z,97.52
2023-01-03T05:15:47.022Z,97.07
2023-01-03T05:16:18.504Z,96.99
2023-01-03T05:16:49.929Z,97.44
2023-01-03T05:17:21.850Z,97.30
2023-01-03T05:17:53.354Z,97.48
2023-01-03T05:18:24.744Z,97.50
2023-01-03T05:18:56.502Z,97.72
2023-01-03T05:19:27.945Z,97.17
2023-01-03T05:20:17.460Z,97.61
2023-01-03T05:21:15.000Z,97.30
2023-01-03T05:22:05.052Z,97.42
2023-01-03T05:22:54.714Z,97.84
2023-01-03T05:23:44.364Z,97.17
2023-01-03T05:24:33.945Z,97.39
2023-01-03T05:25:24.250Z,97.45
2023-01-03T05:25:55.660Z,97.23
2023-01-03T05:26:27.145Z,97.31
2023-01-03T05:27:01.557Z,97.04
2023-01-03T05:27:33.121Z,97.65
2023-01-03T05:28:05.071Z,97.35
2023-01-03T05:28:36.644Z,97.57
2023-01-03T05:29:09.639Z,97.43
2023-01-03T05:29:41.253Z,97.10
2023-01-03T05:30:12.909Z,97.13
2023-01-03T05:30:44.421Z,97.34
2023-01-03T05:31:15.912Z,97.53
2023-01-03T05:31:47.758Z,97.24
2023-01-03T05:32:19.272Z,96.89
2023-01-03T05:32:50.673Z,96.88
2023-01-03T05:33:22.106Z,97.09
2023-01-03T05:33:53.558Z,97.53
2023-01-03T05:34:24.912Z,97.18
2023-01-03T05:34:56.314Z,96.88
2023-01-03T05:35:27.741Z,97.01
2023-01-03T05:35:59.306Z,96.83
2023-01-03T05:36:30.754Z,97.19
2023-01-03T05:37:02.122Z,97.16
2023-01-03T05:37:33.485Z,97.47
2023-01-03T05:38:05.192Z,97.24
2023-01-03T05:38:37.361Z,96.70
2023-01-03T05:39:08.769Z,97.21
2023-01-03T05:39:40.112Z,96.95
2023-01-03T05:40:11.899Z,97.31
2023-01-03T05:40:44.141Z,97.13
2023-01-03T05:41:35.788Z,97.22
2023-01-03T05:42:07.253Z,97.10
2023-01-03T05:42:38.597Z,97.21
2023-01-03T05:43:10.612Z,97.11
2023-01-03T05:43:43.057Z,96.98
2023-01-03T05:44:14.442Z,96.94
2023-01-03T05:44:45.781Z,96.92
2023-01-03T05:45:17.418Z,96.82
2023-01-03T05:45:51.519Z,96.71
2023-01-03T05:46:23.028Z,96.67
2023-01-03T05:46:54.445Z,96.94
2023-01-03T05:47:26.029Z,96.83
2023-01-03T05:47:58.544Z,96.84
2023-01-03T05:48:29.868Z,96.91
2023-01-03T05:49:01.319Z,96.63
2023-01-03T05:49:34.220Z,96.90
2023-01-03T05:50:06.180Z,96.96
2023-01-03T05:50:37.759Z,96.86
2023-01-03T05:51:09.162Z,97.10
2023-01-03T05:51:40.917Z,96.71
2023-01-03T05:52:12.252Z,96.98
2023-01-03T05:52:43.714Z,96.72
2023-01-03T05:53:15.556Z,97.22
2023-01-03T05:53:46.904Z,97.14
2023-01-03T05:54:20.291Z,96.80
2023-01-03T05:54:52.141Z,97.04
2023-01-03T05:55:23.990Z,96.77
2023-01-03T05:55:55.385Z,97.20
2023-01-03T05:56:26.853Z,97.17
2023-01-03T05:56:58.261Z,96.60
2023-01-03T05:57:35.223Z,96.97
2023-01-03T05:58:07.980Z,97.17
2023-01-03T05:58:39.329Z,97.00
2023-01-03T05:59:11.105Z,96.61
2023-01-03T05:59:42.510Z,97.06
2023-01-03T06:00:14.896Z,96.83
2023-01-03T06:00:46.313Z,96.74
2023-01-03T06:01:18.067Z,97.07
2023-01-03T06:01:49.980Z,96.77
2023-01-03T06:02:21.513Z,97.03
2023-01-03T06:02:52.935Z,96.37
2023-01-03T06:03:24.286Z,96.69
2023-01-03T06:03:56.055Z,96.76
2023-01-03T06:04:27.557Z,96.40
2023-01-03T06:04:59.183Z,96.45
2023-01-03T06:05:30.571Z,96.33
2023-01-03T06:06:04.070Z,96.60
2023-01-03T06:06:35.475Z,96.34
2023-01-03T06:07:06.921Z,96.62
2023-01-03T06:07:38.314Z,96.47
2023-01-03T06:08:09.711Z,96.14
2023-01-03T06:08:41.684Z,96.24
2023-01-03T06:09:13.039Z,96.68
2023-01-03T06:09:44.386Z,96.34
2023-01-03T06:10:15.989Z,96.46
2023-01-03T06:10:47.603Z,96.24
2023-01-03T06:11:19.239Z,96.32
2023-01-03T06:11:50.597Z,96.21
2023-01-03T06:12:21.963Z,96.21
2023-01-03T06:12:53.355Z,96.18
2023-01-03T06:13:24.752Z,96.34
2023-01-03T06:13:56.138Z,96.12
2023-01-03T06:14:27.493Z,96.31
2023-01-03T06:14:59.097Z,96.28
2023-01-03T06:15:30.522Z,96.23
2023-01-03T06:16:25.694Z,96.30
2023-01-03T06:17:15.616Z,95.89
2023-01-03T06:17:57.828Z,95.71
2023-01-03T06:18:29.761Z,96.13
2023-01-03T06:19:02.807Z,95.88
2023-01-03T06:19:34.268Z,96.21
2023-01-03T06:20:06.054Z,95.66
2023-01-03T06:20:37.381Z,96.06
2023-01-03T06:21:08.698Z,96.28
2023-01-03T06:21:41.543Z,95.92
2023-01-03T06:22:13.036Z,95.98
2023-01-03T06:22:44.450Z,95.78
2023-01-03T06:23:15.789Z,96.07
2023-01-03T06:23:50.071Z,96.01
2023-01-03T06:24:21.447Z,96.09
2023-01-03T06:24:52.834Z,95.58
2023-01-03T06:25:24.519Z,95.54
2023-01-03T06:25:55.953Z,95.44
2023-01-03T06:26:27.688Z,95.58
2023-01-03T06:26:59.134Z,95.64
2023-01-03T06:27:30.562Z,96.12
2023-01-03T06:28:01.932Z,95.99
2023-01-03T06:28:33.325Z,95.42
2023-01-03T06:29:06.220Z,95.67
2023-01-03T06:29:37.613Z,95.55
2023-01-03T06:30:09.816Z,95.55
2023-01-03T06:30:42.821Z,95.46
2023-01-03T06:31:14.761Z,95.95
2023-01-03T06:31:46.138Z,95.42
2023-01-03T06:32:17.686Z,95.70
2023-01-03T06:32:49.438Z,95.71
2023-01-03T06:33:20.812Z,95.22
2023-01-03T06:33:52.226Z,94.95
2023-01-03T06:34:23.560Z,95.54
2023-01-03T06:34:54.930Z,95.77
2023-01-03T06:35:26.412Z,95.22
2023-01-03T06:35:57.883Z,95.03
2023-01-03T06:36:29.587Z,95.43
2023-01-03T06:37:00.933Z,95.12
2023-01-03T06:37:32.323Z,95.58
2023-01-03T06:38:03.870Z,95.40
2023-01-03T06:38:35.718Z,95.08
2023-01-03T06:39:07.286Z,95.12
2023-01-03T06:39:38.811Z,95.26
2023-01-03T06:40:10.778Z,95.18
2023-01-03T06:40:48.106Z,95.12
2023-01-03T06:41:19.726Z,95.66
2023-01-03T06:41:51.162Z,95.63
2023-01-03T06:42:42.825Z,95.14
2023-01-03T06:43:14.736Z,95.30
2023-01-03T06:43:46.502Z,95.21
2023-01-03T06:44:17.917Z,95.46
2023-01-03T06:45:08.529Z,95.47
2023-01-03T06:46:01.670Z,95.02
2023-01-03T06:46:51.867Z,95.26
2023-01-03T06:47:41.723Z,95.44
2023-01-03T06:48:31.600Z,95.44
2023-01-03T06:49:21.818Z,95.64
2023-01-03T06:50:11.521Z,95.45
2023-01-03T06:51:01.780Z,95.15
2023-01-03T06:51:52.730Z,95.05
2023-01-03T06:52:42.768Z,95.48
2023-01-03T06:53:17.574Z,95.24
2023-01-03T06:53:49.123Z,95.25
2023-01-03T06:54:48.555Z,95.24
2023-01-03T06:55:20.413Z,95.00
2023-01-03T06:55:56.920Z,95.27
2023-01-03T06:56:28.879Z,95.54
2023-01-03T06:57:00.308Z,95.06
2023-01-03T06:57:31.731Z,95.31
2023-01-03T06:58:03.055Z,95.54
2023-01-03T06:58:35.047Z,95.16
2023-01-03T06:59:06.576Z,95.17
2023-01-03T06:59:56.676Z,95.21
2023-01-03T07:00:28.060Z,95.65
2023-01-03T07:01:04.489Z,95.38
2023-01-03T07:01:36.467Z,95.53
2023-01-03T07:02:08.068Z,95.65
2023-01-03T07:02:39.549Z,95.79
2023-01-03T07:03:11.749Z,95.31
2023-01-03T07:03:43.306Z,95.80
2023-01-03T07:04:15.325Z,95.71
2023-01-03T07:04:46.815Z,95.64
2023-01-03T07:05:18.190Z,95.50
2023-01-03T07:05:49.972Z,95.54
2023-01-03T07:06:21.424Z,95.59
2023-01-03T07:06:53.110Z,95.87
2023-01-03T07:07:26.059Z,95.85
2023-01-03T07:07:57.553Z,96.11
2023-01-03T07:08:29.100Z,95.96
2023-01-03T07:09:00.482Z,95.52
2023-01-03T07:09:31.968Z,95.57
2023-01-03T07:10:21.864Z,95.76
2023-01-03T07:10:54.910Z,96.01
2023-01-03T07:11:26.799Z,95.85
2023-01-03T07:12:18.292Z,96.18
2023-01-03T07:13:09.153Z,95.81
2023-01-03T07:14:47.853Z,95.78
2023-01-03T07:15:19.233Z,96.27
2023-01-03T07:15:50.718Z,96.13
2023-01-03T07:16:22.367Z,96.11
2023-01-03T07:17:12.687Z,95.97
2023-01-03T07:17:44.079Z,96.42
2023-01-03T07:18:15.485Z,96.23
2023-01-03T07:18:54.781Z,95.73
2023-01-03T07:19:26.898Z,96.38
2023-01-03T07:19:58.286Z,96.54
2023-01-03T07:20:29.671Z,96.59
2023-01-03T07:21:01.085Z,96.66
2023-01-03T07:21:34.588Z,96.55
2023-01-03T07:22:05.938Z,96.07
2023-01-03T07:22:37.330Z,95.87
2023-01-03T07:23:08.922Z,96.52
2023-01-03T07:23:40.291Z,96.21
2023-01-03T07:24:14.311Z,95.87
2023-01-03T07:24:45.682Z,96.59
2023-01-03T07:25:17.100Z,96.32
2023-01-03T07:25:48.505Z,96.47
2023-01-03T07:26:20.229Z,96.46
2023-01-03T07:26:51.608Z,96.21
2023-01-03T07:27:23.050Z,96.46
2023-01-03T07:28:03.616Z,96.49
2023-01-03T07:28:37.311Z,96.49
2023-01-03T07:29:10.055Z,96.31
2023-01-03T07:29:41.483Z,96.30
2023-01-03T07:30:13.355Z,96.70
2023-01-03T07:30:46.410Z,95.86
2023-01-03T07:31:18.377Z,96.17
2023-01-03T07:31:49.750Z,96.18
2023-01-03T07:32:21.130Z,96.53
2023-01-03T07:32:52.518Z,96.48
2023-01-03T07:33:23.870Z,96.43
2023-01-03T07:33:55.218Z,96.55
2023-01-03T07:34:26.836Z,96.54
2023-01-03T07:34:58.183Z,96.44
2023-01-03T07:35:32.507Z,96.21
2023-01-03T07:36:11.449Z,96.42
2023-01-03T07:36:43.307Z,96.24
2023-01-03T07:37:14.694Z,96.17
2023-01-03T07:37:46.082Z,96.29
2023-01-03T07:38:17.493Z,95.99
2023-01-03T07:38:48.912Z,96.32
2023-01-03T07:39:20.302Z,96.47
2023-01-03T07:39:51.679Z,96.52
2023-01-03T07:40:23.146Z,96.63
2023-01-03T07:41:01.321Z,95.94
2023-01-03T07:41:56.013Z,96.42
2023-01-03T07:42:45.981Z,96.35
2023-01-03T07:43:40.175Z,95.76
2023-01-03T07:44:11.512Z,96.17
2023-01-03T07:44:42.914Z,95.90
2023-01-03T07:45:14.385Z,96.60
2023-01-03T07:45:46.560Z,96.45